x

Onslow Bay Outer, Nc (41036) Wave Buoy

5:50am - Wed 17th Sep 2014 All times are EDT. -4 hours from GMT.

  • Sig Wave height 2.6ft
  • Swell Direction
  • Peak Period 13s
  • Average Period 5s
  • Wind
    16mph, 18mph gusts
  • Sea Temp 82°f
  • Air Temp 76°f
  • Sea Pressure 1012.3mb
  • Onslow Bay Outer, Nc
  • Onslow Bay Outer, Nc

More Historic Weather Station data

Upgrade to MSW Pro to gain access to the past 30 days of data for over 8000 Wavebouys and Weather Stations around the globe.

Join Pro

Comparision Forecast

View Surf forecast
   
Wed 09/17 5:50am 2.5ft 13s 5s 16 18 mph 1012.3mb 82f 76f
5:20am  -   -   -  11 13 mph 1012.5mb 82f 76f
4:50am 2.5ft 12s 4s 13 16 mph 1011.9mb 82f 76f
4:20am  -   -   -  16 18 mph 1012mb 82f 76f
3:50am 2.5ft 13s 4s 16 20 mph 1012.3mb 82f 75f
3:20am  -   -   -  25 29 mph 1013.2mb 82f 75f
2:50am 2ft 13s 6s 13 16 mph 1013.3mb 82f 80f
2:20am  -   -   -  11 13 mph 1013.5mb 82f 80f
1:50am 1.6ft 12s 6s 9
mph
1013.8mb 82f 80f
1:20am  -   -   -  9
mph
1013.7mb 82f 80f
12:50am 2ft 13s 6s 7 9 mph 1014.3mb 82f 80f
12:20am  -   -   -  7 11 mph 1014.5mb 82f 80f
Tue 09/16 11:50pm 2ft 13s 5s 7 9 mph 1014.5mb 82f 80f
11:20pm  -   -   -  9 11 mph 1014.3mb 82f 80f
10:50pm 2ft 13s 5s 9 13 mph 1014.4mb 82f 80f
10:20pm  -   -   -  9 11 mph 1014.5mb 82f 80f
9:50pm 2ft 13s 6s 9 11 mph 1014.6mb 82f 79f
9:20pm  -   -   -  9 11 mph 1015mb 82f 79f
8:50pm 2ft 13s 6s 9 11 mph 1015mb 82f 79f
8:20pm  -   -   -  7 9 mph 1014.7mb 82f 79f
7:50pm 1.6ft 13s 7s 7 9 mph 1014.6mb 82f 79f
7:20pm  -   -   -  7 9 mph 1014.6mb 82f 79f
6:50pm 1.6ft 12s 6s 7 9 mph 1014.5mb 82f 79f
6:20pm  -   -   -  7
mph
1014.6mb 82f 80f
5:50pm 1.6ft 14s 6s 7
mph
1014.7mb 82f 79f
5:20pm  -   -   -  7 9 mph 1014.7mb 82f 79f
4:50pm 1.6ft 8s 6s 4 7 mph 1014.8mb 82f 78f
4:20pm  -   -   -  4 7 mph 1014.7mb 82f 78f
3:50pm 1.6ft 13s 6s 7 9 mph 1015mb 82f 78f
3:20pm  -   -   -  2 4 mph 1015.4mb 82f 78f
2:50pm 1.6ft 13s 6s 2 4 mph 1015.6mb 82f 77f
2:20pm  -   -   -  4 7 mph 1015.9mb 82f 77f
1:50pm 1.6ft 13s 6s 4 7 mph 1016.2mb 82f 77f
1:20pm  -   -   -  7
mph
1016.3mb 82f 76f
12:50pm 1.6ft 12s 6s 9 11 mph 1016.7mb 82f 76f
12:20pm  -   -   -  9 11 mph 1017.1mb 81f 75f
11:50am 1.6ft 13s 6s 7 9 mph 1017.6mb 81f 74f
11:20am  -   -   -  7 9 mph 1017.8mb 81f 74f
10:50am 1.6ft 13s 6s 9 11 mph 1017.8mb 81f 74f
10:20am  -   -   -  7 11 mph 1018.1mb 81f 74f
9:50am 1.6ft 5s 5s 7 9 mph 1018.1mb 81f 73f
9:20am  -   -   -  13 18 mph 1017.4mb 81f 73f
8:50am 1.6ft 8s 6s 11 16 mph 1017.6mb 80f 73f
8:20am  -   -   -  7 9 mph 1017.8mb 80f 73f
7:50am 2ft 13s 6s 4 7 mph 1018mb 81f 72f
7:20am  -   -   -  20 25 mph 1017.1mb 82f 74f
6:50am 1.6ft 6s 6s 11 16 mph 1017.4mb 82f 77f
6:20am  -   -   -  4 7 mph 1017.5mb 82f 78f
5:50am 2ft 8s 6s 2 4 mph 1017.5mb 82f 78f
4:50am 1.6ft 8s 6s 2 4 mph 1017.3mb 82f 77f
4:20am  -   -   -  4
mph
1017.5mb 82f 77f
3:50am 1.6ft 13s 6s 2 4 mph 1017.9mb 82f 77f
3:20am  -   -   -   -  2 mph 1018.1mb 82f 77f
2:50am 1.6ft 8s 6s 2
mph
1018.4mb 82f 77f
2:20am  -   -   -  2 4 mph 1018.7mb 82f 77f
1:50am 1.6ft 9s 5s 2
mph
1019mb 82f 77f
1:20am  -   -   -  4
mph
1019.2mb 82f 77f
12:50am 2ft 5s 5s 2 7 mph 1019.7mb 82f 77f
12:20am  -   -   -  4 7 mph 1020.1mb 82f 77f
Mon 09/15 11:50pm 2.5ft 8s 5s 4 7 mph 1020.4mb 82f 77f
11:20pm  -   -   -  4 7 mph 1020.5mb 82f 77f
10:50pm 2ft 9s 5s 4 7 mph 1020.6mb 82f 77f
10:20pm  -   -   -  7 9 mph 1020.7mb 82f 77f
9:50pm 2.5ft 9s 5s 4 7 mph 1020.7mb 82f 77f
9:20pm  -   -   -  4 7 mph 1020.6mb 82f 77f
8:50pm 2.5ft 7s 5s 4 7 mph 1020.4mb 82f 77f
8:20pm  -   -   -  4 7 mph 1020.2mb 82f 77f
7:50pm 2.5ft 7s 5s 7 9 mph 1020.1mb 82f 77f
7:20pm  -   -   -  7 9 mph 1019.9mb 82f 76f
6:50pm 2.5ft 8s 5s 9 11 mph 1020mb 82f 76f
6:20pm  -   -   -  9 11 mph 1019.9mb 82f 76f
5:50pm 2.5ft 7s 5s 9 11 mph 1020.3mb 82f 76f
5:20pm  -   -   -  9 11 mph 1020.5mb 82f 77f
4:50pm 2.5ft 8s 5s 9 11 mph 1020.7mb 82f 76f
4:20pm  -   -   -  9 11 mph 1020.8mb 82f 76f
3:50pm 2.5ft 8s 5s 9 13 mph 1021mb 82f 76f
3:20pm  -   -   -  9 11 mph 1021.2mb 82f 76f
2:50pm 3ft 8s 5s 9 13 mph 1021.4mb 82f 76f
2:20pm  -   -   -  11 16 mph 1021.6mb 82f 76f
1:50pm 3ft 8s 4s 13 16 mph 1021.8mb 82f 76f
1:20pm  -   -   -  13 16 mph 1022mb 82f 76f
12:50pm 2.5ft 8s 4s 16 20 mph 1022mb 82f 76f
12:20pm  -   -   -  16 20 mph 1022.2mb 82f 75f
11:50am 3ft 8s 4s 16 18 mph 1022.6mb 82f 75f
11:20am  -   -   -  13 16 mph 1022.8mb 82f 75f
10:50am 2.5ft 9s 4s 13 16 mph 1022.9mb 82f 75f
10:20am  -   -   -  13 18 mph 1022.8mb 82f 75f
9:50am 2.5ft 4s 4s 16 18 mph 1022.5mb 82f 75f
9:20am  -   -   -  16 18 mph 1022.6mb 82f 75f
8:50am 2.5ft 7s 4s 16 18 mph 1022.4mb 82f 75f
8:20am  -   -   -  16 18 mph 1022.4mb 82f 75f
7:50am 3ft 9s 5s 16 18 mph 1022.5mb 82f 75f
7:20am  -   -   -  16 18 mph 1022.2mb 82f 75f
6:50am 2.5ft 9s 4s 13 16 mph 1022.1mb 82f 75f
6:20am  -   -   -  13 16 mph 1021.8mb 82f 75f
5:50am 2.5ft 9s 4s 11 13 mph 1021.9mb 82f 75f
5:20am  -   -   -  13 16 mph 1021.5mb 82f 75f
4:50am 2.5ft 8s 4s 16 18 mph 1021.3mb 82f 75f
4:20am  -   -   -  13 16 mph 1021.1mb 82f 75f
3:50am 2.5ft 9s 4s 13 16 mph 1021.1mb 82f 74f
3:20am  -   -   -  13 16 mph 1021.3mb 82f 75f
2:50am 2.5ft 8s 5s 11 13 mph 1021.5mb 82f 75f
2:20am  -   -   -  11 13 mph 1021.9mb 82f 75f
1:50am 3ft 5s 4s 11 16 mph 1022mb 82f 75f
1:20am  -   -   -  11 13 mph 1022mb 82f 75f
12:50am 3ft 6s 4s 11 13 mph 1022.1mb 82f 75f
12:20am  -   -   -  11 16 mph 1022.1mb 82f 75f
Sun 09/14 11:50pm 3ft 4s 4s 13 16 mph 1022.1mb 82f 75f
11:20pm  -   -   -  13 18 mph 1022mb 82f 75f
10:50pm 3ft 5s 4s 16 18 mph 1021.9mb 82f 76f
10:20pm  -   -   -  16 18 mph 1021.9mb 82f 76f
9:50pm 3.5ft 5s 4s 18 25 mph 1021.9mb 82f 76f
9:20pm  -   -   -  18 22 mph 1021.8mb 82f 76f
8:50pm 3.5ft 4s 4s 18 20 mph 1022mb 82f 76f
8:20pm  -   -   -  18 20 mph 1021.7mb 82f 76f
7:50pm 3.5ft 5s 4s 18 20 mph 1021.5mb 82f 76f
7:20pm  -   -   -  18 22 mph 1021.2mb 82f 76f
6:50pm 3.5ft 5s 4s 18 22 mph 1021.4mb 82f 76f
6:20pm  -   -   -  18 22 mph 1021.4mb 82f 77f
5:50pm 3.5ft 5s 4s 18 22 mph 1021.3mb 82f 76f
5:20pm  -   -   -  18 20 mph 1021.3mb 82f 77f
4:50pm 3.5ft 5s 4s 18 20 mph 1021.1mb 82f 77f
4:20pm  -   -   -  18 20 mph 1021.3mb 82f 77f
3:50pm 3.5ft 5s 4s 18 20 mph 1021.3mb 82f 77f
3:20pm  -   -   -  18 20 mph 1021.4mb 82f 77f
2:50pm 4ft 5s 4s 18 20 mph 1021.5mb 82f 77f
2:20pm  -   -   -  20 22 mph 1021.6mb 82f 77f
1:50pm 4ft 6s 4s 20 22 mph 1021.6mb 82f 77f
1:20pm  -   -   -  20 22 mph 1021.7mb 82f 77f
12:50pm 4.5ft 5s 4s 20 25 mph 1021.6mb 82f 76f
12:20pm  -   -   -  20 25 mph 1021.8mb 82f 76f
11:50am 5ft 6s 5s 20 25 mph 1022mb 82f 76f
11:20am  -   -   -  22 27 mph 1022mb 82f 76f
10:50am 4.5ft 5s 4s 22 27 mph 1022mb 82f 76f
10:20am  -   -   -  22 27 mph 1022.2mb 82f 76f
9:50am 4.5ft 5s 4s 22 29 mph 1022mb 82f 76f
9:20am  -   -   -  22 27 mph 1021.9mb 82f 75f
8:50am 4ft 5s 4s 22 27 mph 1021.8mb 82f 75f
8:20am  -   -   -  20 25 mph 1021.7mb 82f 76f
7:50am 3.5ft 5s 4s 22 25 mph 1021.4mb 82f 76f
7:20am  -   -   -  22 25 mph 1021mb 82f 76f
6:50am 3.5ft 5s 4s 22 25 mph 1020.8mb 82f 76f
6:20am  -   -   -  18 25 mph 1020.4mb 82f 76f
5:50am 3.5ft 4s 4s 20 22 mph 1020.1mb 82f 75f
5:20am  -   -   -  22 25 mph 1019.9mb 82f 76f
4:50am 2.5ft 4s 4s 22 25 mph 1019.6mb 82f 77f
4:20am  -   -   -  20 22 mph 1019.4mb 82f 78f
3:50am 2.5ft 3s 3s 18 20 mph 1019.5mb 82f 78f
3:20am  -   -   -  18 22 mph 1019.4mb 82f 78f
2:50am 1.6ft 3s 3s 16 18 mph 1019.4mb 83f 78f
2:20am  -   -   -  16 18 mph 1019.5mb 83f 79f
1:50am 1.6ft 7s 4s 16 18 mph 1019.2mb 83f 79f
1:20am  -   -   -  13 16 mph 1019.7mb 83f 79f
12:50am 1.3ft 7s 4s 11 13 mph 1020mb 83f 80f
12:20am  -   -   -  11
mph
1019.8mb 83f 80f
Sat 09/13 11:50pm 1.3ft 7s 4s 11 13 mph 1019.7mb 83f 80f
11:20pm  -   -   -  11 13 mph 1019.9mb 83f 80f
10:50pm 1.3ft 8s 5s 13
mph
1020.2mb 83f 80f
10:20pm  -   -   -  11 13 mph 1020mb 83f 81f
9:50pm 1.3ft 7s 5s 9 11 mph 1019.8mb 83f 81f
9:20pm  -   -   -  7 9 mph 1019.4mb 83f 82f
8:50pm 1.3ft 7s 5s 4
mph
1019.1mb 83f 82f
8:20pm  -   -   -  4 7 mph 1019.1mb 83f 82f
7:50pm 1.3ft 8s 6s 7
mph
1018.9mb 83f 82f
7:20pm  -   -   -  4
mph
1018.8mb 83f 83f
6:50pm 1ft 7s 5s 7
mph
1018.4mb 83f 83f
6:20pm  -   -   -  7
mph
1018mb 83f 83f
5:50pm 1.3ft 8s 5s 7
mph
1017.9mb 83f 83f
5:20pm  -   -   -  7
mph
1017.9mb 83f 83f
4:50pm 1.3ft 6s 5s 7 9 mph 1018mb 83f 83f
4:20pm  -   -   -  9 11 mph 1017.7mb 84f 83f
3:50pm 1.3ft 6s 5s 9 11 mph 1017.7mb 84f 83f
3:20pm  -   -   -  7 9 mph 1017.8mb 84f 83f
2:50pm 1.3ft 6s 5s 9
mph
1018.2mb 84f 82f
2:20pm  -   -   -  7
mph
1018.6mb 84f 82f
1:50pm 1.3ft 6s 5s 7 9 mph 1018.8mb 83f 82f
1:20pm  -   -   -  7 9 mph 1019mb 83f 82f
12:50pm 1.3ft 6s 5s 7
mph
1019.2mb 83f 81f
12:20pm  -   -   -  7 9 mph 1019.2mb 83f 81f
11:50am 1.3ft 6s 5s 7 9 mph 1019.3mb 83f 81f
11:20am  -   -   -  7 9 mph 1019.2mb 83f 81f
10:50am 1.3ft 9s 5s 4 7 mph 1019.3mb 83f 80f